createdAt,value
2019-04-26T00:02:35.334Z,10.93
2019-04-26T00:05:02.314Z,10.90
2019-04-26T00:07:29.339Z,10.89
2019-04-26T00:09:57.247Z,10.90
2019-04-26T00:12:39.867Z,10.91
2019-04-26T00:15:19.184Z,10.93
2019-04-26T00:17:49.381Z,10.93
2019-04-26T00:20:17.124Z,10.89
2019-04-26T00:22:45.223Z,10.90
2019-04-26T00:25:12.524Z,10.90
2019-04-26T00:27:39.599Z,10.90
2019-04-26T00:30:06.581Z,10.90
2019-04-26T00:32:33.567Z,10.89
2019-04-26T00:35:00.586Z,10.91
2019-04-26T00:37:27.581Z,10.92
2019-04-26T00:39:54.528Z,10.89
2019-04-26T00:42:42.468Z,10.88
2019-04-26T00:45:09.653Z,10.89
2019-04-26T00:47:37.495Z,10.88
2019-04-26T00:50:06.427Z,10.88
2019-04-26T00:52:34.302Z,10.86
2019-04-26T00:55:01.567Z,10.83
2019-04-26T00:57:30.243Z,10.82
2019-04-26T00:59:57.876Z,10.82
2019-04-26T01:02:31.103Z,10.78
2019-04-26T01:04:58.041Z,10.76
2019-04-26T01:07:25.320Z,10.75
2019-04-26T01:09:52.476Z,10.75
2019-04-26T01:12:19.752Z,10.73
2019-04-26T01:14:46.775Z,10.71
2019-04-26T01:17:13.701Z,10.69
2019-04-26T01:19:42.410Z,10.67
2019-04-26T01:22:14.096Z,10.68
2019-04-26T01:24:44.202Z,10.67
2019-04-26T01:27:14.295Z,10.65
2019-04-26T01:29:43.167Z,10.66
2019-04-26T01:32:11.688Z,10.65
2019-04-26T01:34:40.231Z,10.66
2019-04-26T01:37:07.377Z,10.65
2019-04-26T01:39:37.506Z,10.64
2019-04-26T01:42:16.633Z,10.61
2019-04-26T01:45:00.434Z,10.60
2019-04-26T01:47:28.415Z,10.60
2019-04-26T01:49:57.337Z,10.58
2019-04-26T01:52:25.569Z,10.60
2019-04-26T01:54:52.763Z,10.60
2019-04-26T01:57:27.262Z,10.61
2019-04-26T01:59:58.804Z,10.61
2019-04-26T02:02:38.448Z,10.60
2019-04-26T02:05:10.138Z,10.58
2019-04-26T02:07:40.583Z,10.56
2019-04-26T02:10:09.881Z,10.53
2019-04-26T02:12:38.805Z,10.51
2019-04-26T02:15:06.315Z,10.49
2019-04-26T02:17:33.651Z,10.48
2019-04-26T02:20:01.210Z,10.47
2019-04-26T02:22:37.267Z,10.44
2019-04-26T02:25:04.735Z,10.44
2019-04-26T02:27:32.534Z,10.42
2019-04-26T02:29:59.993Z,10.38
2019-04-26T02:32:29.439Z,10.39
2019-04-26T02:34:59.577Z,10.38
2019-04-26T02:37:28.312Z,10.38
2019-04-26T02:39:56.384Z,10.38
2019-04-26T02:42:52.301Z,10.38
2019-04-26T02:46:02.701Z,10.37
2019-04-26T02:49:00.865Z,10.35
2019-04-26T02:51:36.166Z,10.37
2019-04-26T02:54:09.459Z,10.37
2019-04-26T02:56:40.159Z,10.40
2019-04-26T02:59:40.590Z,10.39
2019-04-26T03:02:18.791Z,10.37
2019-04-26T03:04:49.094Z,10.35
2019-04-26T03:07:24.045Z,10.33
2019-04-26T03:09:53.295Z,10.32
2019-04-26T03:12:24.184Z,10.31
2019-04-26T03:15:16.715Z,10.30
2019-04-26T03:18:18.358Z,10.26
2019-04-26T03:20:49.965Z,10.25
2019-04-26T03:23:58.241Z,10.23
2019-04-26T03:26:57.693Z,10.22
2019-04-26T03:29:36.995Z,10.21
2019-04-26T03:32:21.235Z,10.21
2019-04-26T03:35:20.043Z,10.20
2019-04-26T03:38:00.893Z,10.17
2019-04-26T03:40:43.218Z,10.17
2019-04-26T03:43:41.353Z,10.17
2019-04-26T03:46:33.598Z,10.15
2019-04-26T03:49:35.733Z,10.13
2019-04-26T03:52:30.726Z,10.12
2019-04-26T03:55:02.221Z,10.13
2019-04-26T03:57:46.066Z,10.13
2019-04-26T04:00:52.345Z,10.12
2019-04-26T04:03:47.814Z,10.12
2019-04-26T04:06:22.701Z,10.09
2019-04-26T04:08:56.371Z,10.04
2019-04-26T04:11:29.950Z,10.02
2019-04-26T04:14:06.631Z,10.02
2019-04-26T04:16:51.788Z,9.99
2019-04-26T04:19:30.929Z,9.95
2019-04-26T04:22:04.251Z,9.93
2019-04-26T04:24:39.135Z,9.91
2019-04-26T04:27:10.541Z,9.88
2019-04-26T04:30:39.983Z,9.87
2019-04-26T04:33:15.714Z,9.86
2019-04-26T04:35:50.855Z,9.85
2019-04-26T04:38:45.836Z,9.86
2019-04-26T04:41:26.880Z,9.89
2019-04-26T04:44:09.074Z,9.89
2019-04-26T04:47:26.137Z,9.90
2019-04-26T04:50:06.362Z,9.93
2019-04-26T04:52:55.697Z,9.95
2019-04-26T04:55:47.900Z,9.95
2019-04-26T04:58:22.242Z,9.96
2019-04-26T05:01:48.289Z,9.96
2019-04-26T05:04:24.375Z,9.95
2019-04-26T05:07:33.991Z,9.97
2019-04-26T05:10:15.702Z,9.96
2019-04-26T05:13:00.874Z,9.97
2019-04-26T05:16:06.840Z,9.96
2019-04-26T05:19:05.544Z,10.01
2019-04-26T05:21:49.436Z,10.07
2019-04-26T05:24:31.982Z,10.11
2019-04-26T05:27:55.723Z,10.15
2019-04-26T05:31:04.184Z,10.17
2019-04-26T05:34:22.116Z,10.19
2019-04-26T05:36:59.553Z,10.20
2019-04-26T05:39:39.322Z,10.22
2019-04-26T05:42:49.766Z,10.23
2019-04-26T05:46:13.327Z,10.24
2019-04-26T05:49:18.324Z,10.26
2019-04-26T05:52:46.261Z,10.30
2019-04-26T05:56:17.202Z,10.31
2019-04-26T05:59:10.331Z,10.31
2019-04-26T06:02:12.703Z,10.34
2019-04-26T06:08:31.537Z,10.35
2019-04-26T06:11:54.635Z,10.37
2019-04-26T06:15:00.873Z,10.42
2019-04-26T06:17:53.147Z,10.50
2019-04-26T06:20:29.099Z,10.53
2019-04-26T06:23:27.661Z,10.50
2019-04-26T06:26:31.330Z,10.52
2019-04-26T06:29:05.842Z,10.51
2019-04-26T06:31:45.649Z,10.52
2019-04-26T06:34:27.812Z,10.54
2019-04-26T06:37:35.102Z,10.58
2019-04-26T06:40:16.674Z,10.61
2019-04-26T06:43:29.501Z,10.62
2019-04-26T06:50:12.528Z,10.64
2019-04-26T06:53:00.228Z,10.65
2019-04-26T06:55:46.799Z,10.67
2019-04-26T06:58:43.306Z,10.68
2019-04-26T07:01:24.310Z,10.73
2019-04-26T07:04:33.334Z,10.80
2019-04-26T07:07:45.944Z,10.85
2019-04-26T07:10:33.439Z,10.91
2019-04-26T07:13:37.157Z,10.93
2019-04-26T07:16:23.215Z,10.94
2019-04-26T07:19:24.095Z,10.95
2019-04-26T07:22:35.313Z,10.95
2019-04-26T07:25:39.305Z,10.98
2019-04-26T07:28:47.472Z,10.99
2019-04-26T07:31:48.300Z,10.99
2019-04-26T07:34:57.435Z,11.06
2019-04-26T07:38:01.297Z,11.13
2019-04-26T07:41:23.763Z,11.21
2019-04-26T07:44:35.414Z,11.23
2019-04-26T07:48:17.475Z,11.33
2019-04-26T07:51:09.879Z,11.40
2019-04-26T07:54:06.790Z,11.42
2019-04-26T07:57:04.586Z,11.43
2019-04-26T08:00:11.635Z,11.47
2019-04-26T08:03:07.228Z,11.51
2019-04-26T08:05:49.996Z,11.53
2019-04-26T08:08:19.903Z,11.58
2019-04-26T08:11:01.744Z,11.71
2019-04-26T08:13:31.883Z,11.77
2019-04-26T08:16:21.792Z,11.85
2019-04-26T08:18:58.046Z,11.91
2019-04-26T08:21:31.889Z,11.99
2019-04-26T08:24:12.074Z,11.96
2019-04-26T08:26:41.631Z,12.05
2019-04-26T08:29:12.671Z,12.08
2019-04-26T08:31:42.598Z,12.21
2019-04-26T08:34:14.520Z,12.18
2019-04-26T08:36:51.728Z,12.11
2019-04-26T08:39:29.615Z,12.25
2019-04-26T08:41:56.993Z,12.39
2019-04-26T08:44:51.128Z,12.35
2019-04-26T08:47:50.051Z,12.36
2019-04-26T08:50:36.007Z,12.43
2019-04-26T08:53:04.094Z,12.49
2019-04-26T08:55:33.451Z,12.49
2019-04-26T08:58:05.912Z,12.52
2019-04-26T09:00:48.353Z,12.50
2019-04-26T09:03:40.162Z,12.52
2019-04-26T09:06:21.556Z,12.50
2019-04-26T09:08:50.748Z,12.58
2019-04-26T09:11:25.864Z,12.71
2019-04-26T09:13:51.553Z,12.72
2019-04-26T09:16:20.315Z,12.84
2019-04-26T09:18:52.679Z,12.85
2019-04-26T09:21:19.937Z,12.96
2019-04-26T09:24:08.288Z,12.97
2019-04-26T09:26:55.124Z,12.99
2019-04-26T09:29:26.308Z,12.92
2019-04-26T09:32:00.599Z,12.94
2019-04-26T09:34:32.258Z,12.97
2019-04-26T09:36:59.420Z,13.01
2019-04-26T09:39:26.504Z,13.08
2019-04-26T09:41:56.155Z,13.26
2019-04-26T09:44:41.464Z,13.46
2019-04-26T09:47:32.387Z,13.56
2019-04-26T09:50:21.799Z,13.57
2019-04-26T09:52:50.228Z,13.63
2019-04-26T09:55:17.300Z,13.74
2019-04-26T09:57:44.284Z,13.86
2019-04-26T10:00:50.187Z,13.87
2019-04-26T10:03:17.344Z,13.94
2019-04-26T10:05:44.471Z,14.14
2019-04-26T10:08:13.150Z,14.20
2019-04-26T10:10:40.341Z,14.38
2019-04-26T10:13:36.231Z,14.52
2019-04-26T10:16:25.793Z,14.62
2019-04-26T10:18:58.400Z,14.75
2019-04-26T10:21:27.558Z,14.93
2019-04-26T10:23:54.541Z,14.98
2019-04-26T10:26:36.998Z,15.01
2019-04-26T10:29:04.179Z,14.95
2019-04-26T10:31:31.195Z,14.92
2019-04-26T10:33:58.232Z,14.90
2019-04-26T10:36:26.249Z,14.96
2019-04-26T10:38:54.586Z,15.04
2019-04-26T10:41:23.470Z,15.11
2019-04-26T10:43:50.438Z,15.14
2019-04-26T10:46:17.375Z,15.28
2019-04-26T10:48:49.665Z,15.49
2019-04-26T10:51:17.793Z,15.77
2019-04-26T10:54:12.611Z,15.91
2019-04-26T10:57:06.279Z,16.08
2019-04-26T10:59:39.751Z,16.17
2019-04-26T11:02:10.528Z,15.76
2019-04-26T11:04:41.424Z,15.47
2019-04-26T11:07:08.214Z,15.37
2019-04-26T11:09:35.158Z,15.34
2019-04-26T11:12:21.059Z,15.48
2019-04-26T11:14:48.021Z,15.61
2019-04-26T11:17:17.572Z,15.80
2019-04-26T11:19:44.554Z,16.03
2019-04-26T11:22:11.511Z,16.27
2019-04-26T11:24:38.451Z,16.41
2019-04-26T11:27:09.694Z,16.33
2019-04-26T11:29:34.660Z,16.53
2019-04-26T11:32:02.820Z,16.61
2019-04-26T11:34:30.628Z,16.64
2019-04-26T11:36:57.754Z,16.47
2019-04-26T11:39:27.909Z,16.44
2019-04-26T11:41:53.710Z,16.47
2019-04-26T11:44:23.435Z,16.51
2019-04-26T11:46:49.548Z,16.64
2019-04-26T11:49:16.536Z,16.70
2019-04-26T11:51:43.488Z,16.53
2019-04-26T11:54:10.430Z,16.59
2019-04-26T11:56:38.744Z,16.53
2019-04-26T11:59:05.897Z,16.50
2019-04-26T12:01:36.644Z,16.83
2019-04-26T12:04:12.690Z,17.10
2019-04-26T12:06:59.236Z,16.98
2019-04-26T12:09:36.937Z,17.08
2019-04-26T12:12:14.341Z,16.95
2019-04-26T12:14:41.415Z,16.84
2019-04-26T12:17:08.379Z,16.76
2019-04-26T12:19:35.337Z,17.11
2019-04-26T12:22:04.195Z,17.32
2019-04-26T12:24:34.430Z,17.43
2019-04-26T12:27:00.355Z,17.78
2019-04-26T12:29:27.375Z,18.25
2019-04-26T12:31:54.379Z,18.24
2019-04-26T12:34:21.651Z,18.14
2019-04-26T12:36:48.616Z,18.09
2019-04-26T12:39:16.605Z,17.72
2019-04-26T12:41:43.627Z,17.68
2019-04-26T12:44:11.608Z,17.76
2019-04-26T12:46:50.503Z,17.59
2019-04-26T12:49:20.385Z,17.88
2019-04-26T12:55:58.159Z,18.33
2019-04-26T12:58:25.279Z,18.52
2019-04-26T13:00:54.071Z,18.86
2019-04-26T13:03:24.945Z,19.38
2019-04-26T13:05:57.606Z,19.97
2019-04-26T13:08:20.661Z,20.20
2019-04-26T13:11:14.875Z,20.29
2019-04-26T13:13:43.660Z,20.32
2019-04-26T13:16:15.980Z,20.65
2019-04-26T13:18:45.404Z,20.59
2019-04-26T13:21:11.929Z,20.37
2019-04-26T13:23:38.932Z,19.73
2019-04-26T13:26:05.901Z,20.41
2019-04-26T13:28:32.845Z,20.70
2019-04-26T13:31:02.208Z,20.23
2019-04-26T13:33:29.219Z,20.34
2019-04-26T13:36:02.699Z,20.01
2019-04-26T13:38:25.296Z,19.55
2019-04-26T13:41:11.699Z,19.40
2019-04-26T13:44:50.325Z,20.01
2019-04-26T13:47:48.598Z,20.53
2019-04-26T13:50:22.312Z,19.72
2019-04-26T13:52:48.267Z,19.47
2019-04-26T13:55:15.207Z,19.62
2019-04-26T13:57:44.443Z,19.96
2019-04-26T14:00:15.608Z,19.94
2019-04-26T14:02:42.598Z,19.75
2019-04-26T14:05:11.079Z,20.08
2019-04-26T14:07:38.437Z,20.26
2019-04-26T14:10:05.596Z,20.32
2019-04-26T14:12:32.543Z,20.20
2019-04-26T14:14:59.589Z,20.50
2019-04-26T14:17:29.801Z,20.66
2019-04-26T14:19:55.493Z,20.83
2019-04-26T14:23:25.097Z,20.66
2019-04-26T14:26:06.605Z,20.56
2019-04-26T14:28:33.952Z,20.75
2019-04-26T14:31:00.907Z,20.93
2019-04-26T14:33:30.827Z,20.68
2019-04-26T14:35:56.806Z,20.61
2019-04-26T14:38:28.023Z,20.39
2019-04-26T14:41:03.731Z,19.83
2019-04-26T14:43:22.410Z,19.16
2019-04-26T14:45:56.210Z,18.66
2019-04-26T14:48:20.899Z,18.57
2019-04-26T14:50:48.496Z,18.94
2019-04-26T14:53:15.472Z,19.34
2019-04-26T14:55:42.500Z,19.61
2019-04-26T14:58:09.472Z,19.38
2019-04-26T15:00:38.640Z,19.45
2019-04-26T15:03:26.553Z,19.86
2019-04-26T15:06:05.046Z,20.40
2019-04-26T15:08:34.057Z,20.81
2019-04-26T15:11:02.764Z,21.03
2019-04-26T15:13:29.800Z,20.67
2019-04-26T15:15:56.924Z,19.87
2019-04-26T15:18:23.946Z,19.07
2019-04-26T15:20:53.151Z,18.64
2019-04-26T15:23:23.876Z,18.20
2019-04-26T15:25:49.908Z,18.00
2019-04-26T15:28:17.977Z,17.72
2019-04-26T15:30:46.866Z,17.71
2019-04-26T15:33:14.071Z,17.55
2019-04-26T15:35:44.429Z,17.52
2019-04-26T15:38:11.385Z,17.56
2019-04-26T15:40:57.207Z,17.64
2019-04-26T15:43:32.733Z,17.80
2019-04-26T15:46:12.344Z,17.94
2019-04-26T15:49:03.078Z,18.03
2019-04-26T15:51:32.489Z,18.00
2019-04-26T15:54:00.588Z,17.85
2019-04-26T15:56:27.524Z,17.67
2019-04-26T15:58:54.492Z,17.58
2019-04-26T16:01:21.698Z,17.56
2019-04-26T16:03:48.651Z,17.53
2019-04-26T16:06:15.583Z,17.45
2019-04-26T16:08:43.899Z,17.42
2019-04-26T16:11:12.365Z,17.46
2019-04-26T16:13:39.450Z,17.40
2019-04-26T16:16:06.400Z,17.38
2019-04-26T16:18:35.212Z,17.39
2019-04-26T16:21:03.583Z,17.35
2019-04-26T16:27:03.214Z,17.34
2019-04-26T16:30:14.323Z,17.59
2019-04-26T16:33:07.013Z,17.76
2019-04-26T16:35:34.643Z,17.59
2019-04-26T16:38:22.486Z,17.58
2019-04-26T16:40:53.461Z,17.65
2019-04-26T16:43:34.874Z,17.74
2019-04-26T16:45:48.771Z,17.60
2019-04-26T16:48:17.358Z,17.41
2019-04-26T16:50:49.614Z,17.32
2019-04-26T16:53:37.762Z,17.26
2019-04-26T16:55:53.557Z,17.24
2019-04-26T16:58:20.542Z,17.16
2019-04-26T17:00:54.256Z,17.10
2019-04-26T17:03:16.540Z,17.04
2019-04-26T17:05:48.398Z,16.95
2019-04-26T17:08:12.992Z,16.91
2019-04-26T17:10:40.033Z,16.89
2019-04-26T17:13:07.184Z,16.78
2019-04-26T17:15:34.677Z,16.72
2019-04-26T17:18:02.572Z,16.71
2019-04-26T17:20:29.548Z,16.60
2019-04-26T17:23:16.155Z,16.49
2019-04-26T17:26:02.041Z,16.45
2019-04-26T17:28:30.548Z,16.32
2019-04-26T17:30:58.110Z,16.26
2019-04-26T17:33:28.326Z,16.16
2019-04-26T17:35:54.126Z,16.05
2019-04-26T17:38:22.428Z,15.99
2019-04-26T17:40:50.478Z,15.89
2019-04-26T17:43:17.583Z,15.81
2019-04-26T17:45:44.631Z,15.75
2019-04-26T17:48:14.120Z,15.75
2019-04-26T17:50:42.264Z,15.80
2019-04-26T17:53:10.688Z,15.79
2019-04-26T17:55:38.099Z,15.74
2019-04-26T17:58:17.491Z,15.71
2019-04-26T18:00:45.805Z,15.66
2019-04-26T18:03:11.674Z,15.60
2019-04-26T18:05:55.821Z,15.53
2019-04-26T18:08:31.558Z,15.42
2019-04-26T18:10:35.716Z,15.35
2019-04-26T18:13:04.110Z,15.27
2019-04-26T18:15:49.594Z,15.20
2019-04-26T18:18:35.014Z,15.13
2019-04-26T18:21:39.507Z,15.03
2019-04-26T18:24:06.521Z,14.93
2019-04-26T18:26:33.484Z,14.80
2019-04-26T18:29:00.478Z,14.75
2019-04-26T18:31:30.087Z,14.71
2019-04-26T18:34:00.661Z,14.65
2019-04-26T18:36:27.612Z,14.57
2019-04-26T18:38:55.438Z,14.50
2019-04-26T18:41:28.252Z,14.41
2019-04-26T18:43:54.160Z,14.29
2019-04-26T18:46:31.836Z,14.18
2019-04-26T18:48:58.857Z,14.05
2019-04-26T18:51:25.800Z,13.92
2019-04-26T18:54:05.225Z,13.77
2019-04-26T18:56:39.758Z,13.64
2019-04-26T18:59:07.339Z,13.50
2019-04-26T19:01:34.732Z,13.30
2019-04-26T19:04:09.511Z,13.11
2019-04-26T19:06:33.532Z,12.96
2019-04-26T19:09:02.351Z,12.78
2019-04-26T19:11:35.983Z,12.63
2019-04-26T19:14:23.503Z,12.49
2019-04-26T19:17:03.781Z,12.37
2019-04-26T19:19:53.746Z,12.24
2019-04-26T19:22:22.322Z,12.10
2019-04-26T19:24:55.895Z,12.00
2019-04-26T19:27:26.612Z,11.89
2019-04-26T19:29:51.783Z,11.78
2019-04-26T19:32:21.281Z,11.66
2019-04-26T19:34:48.044Z,11.53
2019-04-26T19:37:16.121Z,11.43
2019-04-26T19:39:43.138Z,11.35
2019-04-26T19:42:11.774Z,11.25
2019-04-26T19:44:39.106Z,11.16
2019-04-26T19:47:23.345Z,11.10
2019-04-26T19:50:21.982Z,11.01
2019-04-26T19:53:02.505Z,10.89
2019-04-26T19:55:36.730Z,10.81
2019-04-26T19:58:15.973Z,10.70
2019-04-26T20:00:42.806Z,10.62
2019-04-26T20:03:08.508Z,10.60
2019-04-26T20:05:40.629Z,10.62
2019-04-26T20:08:06.109Z,10.62
2019-04-26T20:10:39.910Z,10.61
2019-04-26T20:13:02.627Z,10.55
2019-04-26T20:15:31.647Z,10.43
2019-04-26T20:17:59.976Z,10.35
2019-04-26T20:20:32.006Z,10.37
2019-04-26T20:22:59.298Z,10.31
2019-04-26T20:25:26.370Z,10.15
2019-04-26T20:27:59.789Z,10.13
2019-04-26T20:30:45.195Z,10.04
2019-04-26T20:33:12.256Z,9.93
2019-04-26T20:35:42.456Z,9.86
2019-04-26T20:38:11.854Z,9.77
2019-04-26T20:40:39.179Z,9.70
2019-04-26T20:43:07.028Z,9.66
2019-04-26T20:45:41.349Z,9.63
2019-04-26T20:48:06.033Z,9.57
2019-04-26T20:50:36.872Z,9.53
2019-04-26T20:53:04.162Z,9.49
2019-04-26T20:55:34.501Z,9.46
2019-04-26T20:58:00.066Z,9.42
2019-04-26T21:00:27.486Z,9.36
2019-04-26T21:03:01.654Z,9.38
2019-04-26T21:05:23.643Z,9.45
2019-04-26T21:07:52.444Z,9.52
2019-04-26T21:10:25.439Z,9.55
2019-04-26T21:12:54.018Z,9.63
2019-04-26T21:15:23.922Z,9.72
2019-04-26T21:17:49.144Z,9.80
2019-04-26T21:20:16.361Z,9.87
2019-04-26T21:22:43.458Z,9.95
2019-04-26T21:25:32.459Z,10.04
2019-04-26T21:28:23.741Z,10.12
2019-04-26T21:31:03.387Z,10.20
2019-04-26T21:33:38.863Z,10.28
2019-04-26T21:36:23.269Z,10.36
2019-04-26T21:39:04.079Z,10.40
2019-04-26T21:41:31.579Z,10.42
2019-04-26T21:44:03.122Z,10.45
2019-04-26T21:46:30.165Z,10.50
2019-04-26T21:48:57.158Z,10.54
2019-04-26T21:51:24.139Z,10.56
2019-04-26T21:53:52.891Z,10.56
2019-04-26T21:56:19.990Z,10.63
2019-04-26T21:58:46.954Z,10.70
2019-04-26T22:01:33.163Z,10.70
2019-04-26T22:04:00.172Z,10.66
2019-04-26T22:06:28.713Z,10.60
2019-04-26T22:09:06.084Z,10.55
2019-04-26T22:11:33.266Z,10.49
2019-04-26T22:14:08.025Z,10.46
2019-04-26T22:17:01.988Z,10.42
2019-04-26T22:19:46.306Z,10.32
2019-04-26T22:22:41.511Z,10.23
2019-04-26T22:25:09.423Z,10.12
2019-04-26T22:27:38.622Z,9.99
2019-04-26T22:30:09.984Z,9.87
2019-04-26T22:32:37.061Z,9.78
2019-04-26T22:35:04.036Z,9.72
2019-04-26T22:37:31.065Z,9.66
2019-04-26T22:39:58.336Z,9.52
2019-04-26T22:42:26.338Z,9.41
2019-04-26T22:45:09.284Z,9.35
2019-04-26T22:47:43.853Z,9.30
2019-04-26T22:50:14.084Z,9.26
2019-04-26T22:52:46.636Z,9.21
2019-04-26T22:55:10.719Z,9.17
2019-04-26T22:57:37.710Z,9.09
2019-04-26T23:00:06.087Z,9.01
2019-04-26T23:02:37.497Z,8.96
2019-04-26T23:05:05.980Z,8.92
2019-04-26T23:07:33.373Z,8.88
2019-04-26T23:10:04.846Z,8.84
2019-04-26T23:12:58.052Z,8.78
2019-04-26T23:16:00.744Z,8.74
2019-04-26T23:19:08.786Z,8.65
2019-04-26T23:21:38.642Z,8.58
2019-04-26T23:24:05.943Z,8.51
2019-04-26T23:26:37.516Z,8.46
2019-04-26T23:29:03.783Z,8.45
2019-04-26T23:31:30.929Z,8.39
2019-04-26T23:33:57.938Z,8.33
2019-04-26T23:36:25.074Z,8.24
2019-04-26T23:38:53.138Z,8.19
2019-04-26T23:41:27.761Z,8.17
2019-04-26T23:44:40.218Z,8.15
2019-04-26T23:47:18.388Z,8.15
2019-04-26T23:49:36.313Z,8.14
2019-04-26T23:52:03.773Z,8.10
2019-04-26T23:54:32.400Z,8.08
2019-04-26T23:57:05.940Z,8.12
2019-04-26T23:59:33.732Z,8.18
